Time;durP1;ratioP1;P1;durP2;ratioP2;P2;SDS_P1;SDS_P2;PMS_P1;PMS_P2;Temp;Humidity;BMP_temperature;BMP_pressure;BME280_temperature;BME280_humidity;BME280_pressure;Samples;Min_cycle;Max_cycle;Signal;HPM_P1;HPM_P2
2022/04/03 00:01:29;;;;;;;32.10;25.60;;;;;;;;;;4955099;28;20039;-67
2022/04/03 00:03:55;;;;;;;34.78;25.80;;;;;;;;;;5053203;28;20031;-68
2022/04/03 00:06:22;;;;;;;34.03;26.08;;;;;;;;;;4962786;28;20031;-69
2022/04/03 00:08:48;;;;;;;31.88;25.65;;;;;;;;;;4952973;28;20023;-67
2022/04/03 00:11:14;;;;;;;34.35;26.55;;;;;;;;;;4956161;28;20035;-67
2022/04/03 00:13:41;;;;;;;31.92;25.30;;;;;;;;;;4953493;28;20377;-73
2022/04/03 00:16:07;;;;;;;32.55;25.80;;;;;;;;;;4959249;28;20046;-70
2022/04/03 00:18:34;;;;;;;35.83;26.10;;;;;;;;;;4965284;28;20061;-69
2022/04/03 00:21:00;;;;;;;37.65;26.92;;;;;;;;;;4953643;28;20384;-67
2022/04/03 00:23:26;;;;;;;33.10;26.77;;;;;;;;;;4967934;28;20054;-71
2022/04/03 00:25:52;;;;;;;32.72;26.00;;;;;;;;;;4953326;28;20457;-67
2022/04/03 00:28:19;;;;;;;31.38;25.90;;;;;;;;;;4953733;28;20024;-67
2022/04/03 00:30:45;;;;;;;34.67;26.63;;;;;;;;;;4951528;28;20035;-69
2022/04/03 00:33:12;;;;;;;35.83;27.05;;;;;;;;;;4953340;28;20023;-68
2022/04/03 00:35:38;;;;;;;33.92;27.25;;;;;;;;;;4966389;28;20026;-67
2022/04/03 00:38:04;;;;;;;37.58;27.25;;;;;;;;;;4960191;28;20035;-73
2022/04/03 00:40:30;;;;;;;30.92;26.00;;;;;;;;;;4952780;29;20031;-67
2022/04/03 00:42:56;;;;;;;35.72;27.45;;;;;;;;;;4953308;28;20032;-69
2022/04/03 00:45:25;;;;;;;32.05;26.45;;;;;;;;;;4953442;28;20042;-69
2022/04/03 00:47:53;;;;;;;34.70;27.27;;;;;;;;;;4953956;28;20016;-67
2022/04/03 00:50:20;;;;;;;32.95;26.65;;;;;;;;;;5051202;28;20488;-69
2022/04/03 00:52:47;;;;;;;33.78;25.70;;;;;;;;;;4952418;28;20038;-68
2022/04/03 00:55:13;;;;;;;31.63;25.75;;;;;;;;;;4968615;28;20553;-68
2022/04/03 00:57:41;;;;;;;32.00;25.90;;;;;;;;;;4974608;28;20543;-68
2022/04/03 01:00:07;;;;;;;34.80;26.50;;;;;;;;;;4970325;28;20438;-68
2022/04/03 01:02:34;;;;;;;31.70;26.25;;;;;;;;;;4953995;28;20058;-67
2022/04/03 01:05:01;;;;;;;31.52;24.17;;;;;;;;;;4953747;28;20031;-67
2022/04/03 01:07:28;;;;;;;33.97;27.35;;;;;;;;;;4958269;28;20080;-66
2022/04/03 01:09:54;;;;;;;33.10;25.65;;;;;;;;;;4952721;28;20114;-68
2022/04/03 01:12:22;;;;;;;34.72;26.63;;;;;;;;;;4951845;28;20451;-67
2022/04/03 01:14:48;;;;;;;34.20;27.35;;;;;;;;;;4964386;28;20049;-70
2022/04/03 01:17:14;;;;;;;34.20;27.00;;;;;;;;;;4952417;28;20062;-72
2022/04/03 01:19:41;;;;;;;33.58;26.98;;;;;;;;;;4970004;28;20023;-67
2022/04/03 01:22:07;;;;;;;36.45;26.85;;;;;;;;;;4952063;28;20059;-65
2022/04/03 01:24:34;;;;;;;32.88;26.05;;;;;;;;;;4952162;28;20082;-68
2022/04/03 01:27:00;;;;;;;33.20;26.42;;;;;;;;;;4969931;28;20030;-73
2022/04/03 01:29:26;;;;;;;36.70;27.67;;;;;;;;;;4952367;28;20023;-67
2022/04/03 01:31:53;;;;;;;32.53;27.20;;;;;;;;;;4955982;28;20034;-67
2022/04/03 01:34:19;;;;;;;33.13;26.08;;;;;;;;;;4953154;28;20059;-67
2022/04/03 01:36:46;;;;;;;31.15;26.20;;;;;;;;;;4963576;28;20026;-67
2022/04/03 01:39:12;;;;;;;36.00;27.27;;;;;;;;;;4954236;28;20436;-67
2022/04/03 01:41:42;;;;;;;32.83;26.92;;;;;;;;;;4953755;28;20034;-66
2022/04/03 01:44:10;;;;;;;34.85;26.75;;;;;;;;;;4952984;28;20038;-68
2022/04/03 01:46:39;;;;;;;32.63;26.38;;;;;;;;;;4954223;28;20100;-68
2022/04/03 01:49:06;;;;;;;33.63;24.48;;;;;;;;;;4971534;28;20030;-68
2022/04/03 01:51:33;;;;;;;32.72;25.50;;;;;;;;;;4956738;28;20178;-67
2022/04/03 01:54:01;;;;;;;32.67;25.65;;;;;;;;;;4954318;28;20027;-67
2022/04/03 01:56:28;;;;;;;31.27;25.45;;;;;;;;;;4952220;28;20027;-67
2022/04/03 01:58:54;;;;;;;32.13;25.13;;;;;;;;;;4953049;28;20035;-69
2022/04/03 02:01:20;;;;;;;33.75;25.25;;;;;;;;;;4951804;28;20034;-69
2022/04/03 02:03:47;;;;;;;29.67;24.48;;;;;;;;;;4952325;29;20089;-68
2022/04/03 02:06:15;;;;;;;29.73;23.70;;;;;;;;;;5052142;28;20399;-67
2022/04/03 02:08:42;;;;;;;29.30;24.23;;;;;;;;;;4953014;28;20050;-67
2022/04/03 02:11:08;;;;;;;28.10;22.75;;;;;;;;;;4952166;28;20071;-68
2022/04/03 02:13:34;;;;;;;27.80;22.63;;;;;;;;;;4955060;28;20027;-67
2022/04/03 02:16:00;;;;;;;27.50;22.25;;;;;;;;;;4956306;28;20101;-72
2022/04/03 02:18:26;;;;;;;30.17;23.60;;;;;;;;;;4956320;28;20062;-72
2022/04/03 02:20:52;;;;;;;29.25;23.55;;;;;;;;;;4955032;28;20027;-67
2022/04/03 02:23:19;;;;;;;24.65;21.10;;;;;;;;;;4957461;28;20043;-68
2022/04/03 02:25:49;;;;;;;25.23;20.58;;;;;;;;;;4957387;28;20031;-68
2022/04/03 02:28:15;;;;;;;23.75;19.70;;;;;;;;;;4955127;28;20145;-67
2022/04/03 02:30:41;;;;;;;22.58;17.92;;;;;;;;;;4956102;28;20085;-67
2022/04/03 02:33:07;;;;;;;22.65;18.92;;;;;;;;;;4957490;28;20449;-71
2022/04/03 02:35:33;;;;;;;22.48;17.77;;;;;;;;;;4954000;28;20484;-68
2022/04/03 02:38:00;;;;;;;22.98;17.58;;;;;;;;;;4953762;28;20022;-67
2022/04/03 02:40:28;;;;;;;24.05;18.25;;;;;;;;;;4969156;28;20019;-69
2022/04/03 02:42:54;;;;;;;22.48;17.48;;;;;;;;;;4962847;28;20621;-66
2022/04/03 02:45:20;;;;;;;22.38;17.30;;;;;;;;;;4955349;28;20016;-74
2022/04/03 02:47:53;;;;;;;21.10;17.20;;;;;;;;;;4954284;29;20050;-69
2022/04/03 02:50:22;;;;;;;23.00;17.63;;;;;;;;;;4956040;28;20513;-66
2022/04/03 02:52:49;;;;;;;22.83;18.85;;;;;;;;;;4960081;28;20249;-69
2022/04/03 02:55:15;;;;;;;23.58;18.88;;;;;;;;;;4962609;28;20473;-73
2022/04/03 02:57:41;;;;;;;24.13;19.35;;;;;;;;;;4956325;28;20081;-67
2022/04/03 03:00:08;;;;;;;23.13;19.08;;;;;;;;;;4954692;28;20038;-67
2022/04/03 03:02:34;;;;;;;25.08;19.88;;;;;;;;;;4955828;28;20039;-74
2022/04/03 03:05:00;;;;;;;25.58;20.48;;;;;;;;;;4955174;28;20055;-68
2022/04/03 03:07:36;;;;;;;22.88;18.98;;;;;;;;;;4965122;28;20056;-68
2022/04/03 03:10:02;;;;;;;24.33;20.25;;;;;;;;;;4957056;28;20419;-69
2022/04/03 03:12:29;;;;;;;29.48;22.42;;;;;;;;;;4965524;28;20033;-73
2022/04/03 03:14:56;;;;;;;23.75;19.90;;;;;;;;;;4973511;28;20027;-71
2022/04/03 03:17:22;;;;;;;25.38;19.27;;;;;;;;;;4974069;28;20038;-67
2022/04/03 03:19:49;;;;;;;24.73;20.35;;;;;;;;;;4967104;28;20055;-67
2022/04/03 03:22:15;;;;;;;26.33;21.75;;;;;;;;;;4955327;28;20114;-67
2022/04/03 03:24:41;;;;;;;24.33;20.25;;;;;;;;;;4954240;28;20034;-73
2022/04/03 03:27:07;;;;;;;23.70;19.50;;;;;;;;;;4955462;28;20036;-67
2022/04/03 03:29:33;;;;;;;24.05;19.60;;;;;;;;;;4953145;28;20023;-68
2022/04/03 03:31:59;;;;;;;27.73;20.15;;;;;;;;;;4954171;28;20027;-67
2022/04/03 03:34:25;;;;;;;24.35;20.17;;;;;;;;;;4953928;28;20035;-73
2022/04/03 03:36:52;;;;;;;25.05;20.27;;;;;;;;;;4954780;28;20038;-67
2022/04/03 03:39:18;;;;;;;23.80;20.35;;;;;;;;;;4954812;28;20074;-67
2022/04/03 03:41:45;;;;;;;25.65;21.00;;;;;;;;;;4953848;28;20031;-68
2022/04/03 03:44:11;;;;;;;24.08;20.73;;;;;;;;;;4955916;28;20030;-66
2022/04/03 03:46:38;;;;;;;26.33;20.58;;;;;;;;;;4962776;28;20058;-67
2022/04/03 03:49:06;;;;;;;27.00;19.40;;;;;;;;;;4961697;28;20034;-69
2022/04/03 03:51:34;;;;;;;23.50;19.13;;;;;;;;;;4966399;28;20073;-66
2022/04/03 03:54:00;;;;;;;23.92;19.65;;;;;;;;;;5021822;28;20028;-67
2022/04/03 03:56:27;;;;;;;25.42;19.83;;;;;;;;;;4970858;28;20383;-68
2022/04/03 03:58:53;;;;;;;24.63;19.30;;;;;;;;;;4973199;28;20399;-68
2022/04/03 04:01:20;;;;;;;23.20;19.02;;;;;;;;;;4971561;28;20038;-67
2022/04/03 04:03:46;;;;;;;22.48;18.65;;;;;;;;;;5051743;28;20157;-68
2022/04/03 04:06:12;;;;;;;23.23;19.75;;;;;;;;;;4954588;28;20027;-70
2022/04/03 04:08:39;;;;;;;23.05;19.48;;;;;;;;;;4965506;28;20039;-67
2022/04/03 04:11:05;;;;;;;23.05;19.25;;;;;;;;;;4972728;28;20034;-68
2022/04/03 04:13:32;;;;;;;25.55;19.98;;;;;;;;;;4961192;28;20031;-68
2022/04/03 04:15:58;;;;;;;28.48;20.15;;;;;;;;;;4956141;28;20071;-66
2022/04/03 04:18:24;;;;;;;22.85;18.92;;;;;;;;;;4953530;28;20059;-70
2022/04/03 04:20:53;;;;;;;21.80;18.67;;;;;;;;;;4953450;28;20032;-67
2022/04/03 04:23:19;;;;;;;21.65;18.55;;;;;;;;;;4953123;28;20419;-73
2022/04/03 04:25:45;;;;;;;24.05;18.52;;;;;;;;;;4954764;28;20046;-68
2022/04/03 04:28:11;;;;;;;20.58;17.85;;;;;;;;;;4970864;28;20034;-69
2022/04/03 04:30:39;;;;;;;20.48;17.40;;;;;;;;;;4959504;28;20031;-68
2022/04/03 04:33:08;;;;;;;23.63;18.08;;;;;;;;;;4954008;28;20118;-67
2022/04/03 04:35:35;;;;;;;19.83;17.40;;;;;;;;;;4952149;28;20035;-74
2022/04/03 04:38:05;;;;;;;24.58;19.35;;;;;;;;;;4952545;28;20046;-68
2022/04/03 04:40:32;;;;;;;20.85;17.58;;;;;;;;;;4959018;28;20023;-72
2022/04/03 04:42:58;;;;;;;20.02;17.02;;;;;;;;;;4972428;28;20031;-71
2022/04/03 04:45:28;;;;;;;22.38;17.63;;;;;;;;;;4963545;28;20070;-68
2022/04/03 04:47:59;;;;;;;19.65;16.50;;;;;;;;;;4953906;28;20473;-72
2022/04/03 04:50:29;;;;;;;20.55;15.88;;;;;;;;;;4953236;28;20545;-71
2022/04/03 04:52:59;;;;;;;18.70;16.30;;;;;;;;;;4967675;28;20487;-69
2022/04/03 04:55:26;;;;;;;19.55;15.32;;;;;;;;;;4951853;28;20023;-72
2022/04/03 04:57:53;;;;;;;19.30;15.23;;;;;;;;;;4952665;28;20031;-67
2022/04/03 05:00:20;;;;;;;17.77;14.23;;;;;;;;;;4952594;28;20037;-68
2022/04/03 05:02:46;;;;;;;19.35;13.45;;;;;;;;;;4968873;28;20030;-69
2022/04/03 05:05:18;;;;;;;18.42;14.18;;;;;;;;;;4953731;28;20082;-76
2022/04/03 05:07:44;;;;;;;18.88;13.70;;;;;;;;;;4962641;28;20059;-75
2022/04/03 05:10:11;;;;;;;14.80;12.23;;;;;;;;;;4959306;28;20027;-67
2022/04/03 05:12:38;;;;;;;15.73;12.65;;;;;;;;;;4962820;28;20085;-71
2022/04/03 05:15:06;;;;;;;14.63;12.30;;;;;;;;;;4956725;28;20511;-74
2022/04/03 05:17:32;;;;;;;15.45;11.85;;;;;;;;;;5052670;28;20074;-74
2022/04/03 05:20:14;;;;;;;18.90;15.23;;;;;;;;;;5076932;28;20413;-69
2022/04/03 05:22:42;;;;;;;16.73;13.82;;;;;;;;;;5055421;28;20033;-71
2022/04/03 05:25:11;;;;;;;16.42;13.07;;;;;;;;;;5061500;28;20025;-72
2022/04/03 05:27:37;;;;;;;15.25;12.82;;;;;;;;;;5055986;28;20046;-70
2022/04/03 05:30:03;;;;;;;18.63;14.18;;;;;;;;;;5055542;28;20410;-72
2022/04/03 05:32:31;;;;;;;16.77;13.90;;;;;;;;;;5061225;28;20028;-67
2022/04/03 05:34:57;;;;;;;16.30;13.13;;;;;;;;;;5052184;28;20033;-66
2022/04/03 05:37:23;;;;;;;16.27;13.00;;;;;;;;;;5056961;28;20040;-66
2022/04/03 05:39:51;;;;;;;17.85;14.77;;;;;;;;;;5061287;28;20033;-66
2022/04/03 05:42:17;;;;;;;16.65;13.07;;;;;;;;;;5069985;28;20029;-68
2022/04/03 05:44:43;;;;;;;25.85;15.00;;;;;;;;;;5063038;28;20039;-66
2022/04/03 05:47:09;;;;;;;41.22;24.95;;;;;;;;;;5067548;28;20033;-67
2022/04/03 05:49:35;;;;;;;20.42;16.67;;;;;;;;;;5066329;28;20040;-67
2022/04/03 05:52:02;;;;;;;18.95;12.60;;;;;;;;;;5063897;28;20024;-78
2022/04/03 05:54:28;;;;;;;19.42;15.50;;;;;;;;;;5053562;28;20494;-76
2022/04/03 05:56:55;;;;;;;18.10;16.10;;;;;;;;;;5053254;28;20409;-77
2022/04/03 05:59:21;;;;;;;18.95;14.48;;;;;;;;;;5074833;28;20072;-77
2022/04/03 06:01:48;;;;;;;20.17;15.23;;;;;;;;;;5061134;28;20025;-74
2022/04/03 06:04:14;;;;;;;42.33;27.02;;;;;;;;;;5076272;28;20030;-76
2022/04/03 06:06:40;;;;;;;22.27;17.08;;;;;;;;;;5061205;28;20048;-75
2022/04/03 06:09:06;;;;;;;15.95;12.10;;;;;;;;;;5055940;28;20029;-75
2022/04/03 06:11:33;;;;;;;16.95;11.70;;;;;;;;;;5066229;28;20021;-68
2022/04/03 06:14:00;;;;;;;13.63;11.25;;;;;;;;;;5063964;28;20040;-69
2022/04/03 06:16:26;;;;;;;15.30;11.60;;;;;;;;;;5062876;28;20028;-77
2022/04/03 06:18:53;;;;;;;13.90;11.50;;;;;;;;;;5055512;28;20053;-72
2022/04/03 06:21:19;;;;;;;16.25;10.57;;;;;;;;;;5051049;28;20014;-72
2022/04/03 06:23:45;;;;;;;14.65;10.15;;;;;;;;;;5048155;28;20112;-71
2022/04/03 06:26:12;;;;;;;13.30;9.93;;;;;;;;;;5055415;28;20465;-66
2022/04/03 06:28:38;;;;;;;14.85;10.35;;;;;;;;;;5053372;28;20083;-74
2022/04/03 06:31:04;;;;;;;13.02;10.13;;;;;;;;;;5041220;28;20005;-70
2022/04/03 06:33:30;;;;;;;11.40;10.10;;;;;;;;;;5037513;28;20045;-76
2022/04/03 06:36:00;;;;;;;12.25;9.50;;;;;;;;;;5035108;28;20366;-77
2022/04/03 06:38:26;;;;;;;11.75;9.77;;;;;;;;;;5035518;28;20021;-75
2022/04/03 06:40:56;;;;;;;13.15;10.23;;;;;;;;;;5034085;28;20029;-76
2022/04/03 06:43:23;;;;;;;16.75;9.27;;;;;;;;;;5034670;28;20025;-74
2022/04/03 06:45:50;;;;;;;13.48;9.07;;;;;;;;;;5035470;28;20460;-76
2022/04/03 06:48:16;;;;;;;13.23;9.32;;;;;;;;;;5032258;28;20439;-73
2022/04/03 06:50:43;;;;;;;14.23;9.98;;;;;;;;;;5042030;28;20426;-74
2022/04/03 06:53:09;;;;;;;12.52;9.52;;;;;;;;;;5036995;28;20131;-73
2022/04/03 06:55:35;;;;;;;11.10;9.30;;;;;;;;;;5029750;28;20041;-72
2022/04/03 06:58:01;;;;;;;11.98;10.18;;;;;;;;;;5041786;28;20052;-71
2022/04/03 07:00:28;;;;;;;12.75;9.65;;;;;;;;;;5043046;28;20057;-71
2022/04/03 07:02:54;;;;;;;13.20;9.20;;;;;;;;;;5032548;28;20105;-72
2022/04/03 07:05:20;;;;;;;11.95;9.35;;;;;;;;;;5031696;28;20021;-69
2022/04/03 07:07:46;;;;;;;14.30;9.32;;;;;;;;;;5036931;28;20033;-70
2022/04/03 07:10:13;;;;;;;12.68;9.82;;;;;;;;;;5046580;28;20485;-69
2022/04/03 07:12:39;;;;;;;13.70;9.50;;;;;;;;;;5042652;28;20036;-70
2022/04/03 07:15:08;;;;;;;13.02;9.23;;;;;;;;;;5040560;28;20029;-68
2022/04/03 07:17:35;;;;;;;13.30;9.55;;;;;;;;;;5037119;28;20378;-74
2022/04/03 07:20:01;;;;;;;15.20;11.00;;;;;;;;;;5035918;28;20095;-69
2022/04/03 07:22:27;;;;;;;10.93;8.90;;;;;;;;;;5032135;28;20018;-77
2022/04/03 07:24:53;;;;;;;12.68;9.05;;;;;;;;;;5041989;28;20486;-70
2022/04/03 07:27:19;;;;;;;13.30;10.02;;;;;;;;;;5038527;28;20095;-70
2022/04/03 07:29:47;;;;;;;11.73;9.13;;;;;;;;;;5036553;28;20033;-71
2022/04/03 07:32:13;;;;;;;16.85;10.82;;;;;;;;;;5048570;28;20052;-76
2022/04/03 07:34:39;;;;;;;13.13;10.23;;;;;;;;;;5038278;28;20026;-73
2022/04/03 07:37:05;;;;;;;16.60;11.13;;;;;;;;;;5043447;28;20029;-74
2022/04/03 07:39:31;;;;;;;11.73;9.35;;;;;;;;;;5041313;28;20045;-75
2022/04/03 07:41:57;;;;;;;13.93;9.48;;;;;;;;;;5038029;28;20040;-73
2022/04/03 07:44:23;;;;;;;11.50;8.77;;;;;;;;;;5034327;28;20033;-68
2022/04/03 07:46:49;;;;;;;12.20;8.27;;;;;;;;;;5039856;28;20025;-76
2022/04/03 07:49:16;;;;;;;12.52;8.13;;;;;;;;;;5045886;28;20065;-80
2022/04/03 07:51:44;;;;;;;9.88;7.63;;;;;;;;;;5038609;28;20021;-74
2022/04/03 07:54:10;;;;;;;11.52;8.02;;;;;;;;;;5037780;28;20147;-72
2022/04/03 07:56:37;;;;;;;10.82;7.63;;;;;;;;;;5038609;28;20017;-70
2022/04/03 07:59:05;;;;;;;13.20;8.05;;;;;;;;;;5042797;28;20033;-76
2022/04/03 08:01:33;;;;;;;8.88;6.97;;;;;;;;;;5039387;28;20021;-75
2022/04/03 08:04:01;;;;;;;10.18;7.57;;;;;;;;;;5035666;28;20445;-75
2022/04/03 08:06:27;;;;;;;9.93;6.65;;;;;;;;;;5037801;28;20017;-78
2022/04/03 08:08:53;;;;;;;8.63;7.10;;;;;;;;;;5044454;28;20398;-74
2022/04/03 08:11:19;;;;;;;11.30;6.85;;;;;;;;;;5037811;28;20398;-76
2022/04/03 08:13:47;;;;;;;11.85;7.07;;;;;;;;;;5033646;28;20024;-75
2022/04/03 08:16:13;;;;;;;9.55;6.80;;;;;;;;;;5043253;28;20094;-76
2022/04/03 08:18:39;;;;;;;13.45;7.95;;;;;;;;;;5036538;28;20057;-75
2022/04/03 08:21:08;;;;;;;12.02;7.97;;;;;;;;;;5041065;28;20032;-77
2022/04/03 08:23:34;;;;;;;11.68;8.07;;;;;;;;;;5040833;28;20025;-77
2022/04/03 08:26:00;;;;;;;12.77;8.48;;;;;;;;;;5038797;28;20084;-69
2022/04/03 08:28:26;;;;;;;10.48;7.70;;;;;;;;;;5042504;28;20459;-78
2022/04/03 08:30:54;;;;;;;9.18;7.10;;;;;;;;;;5051741;28;20859;-80
2022/04/03 08:33:21;;;;;;;9.02;6.95;;;;;;;;;;5043459;28;20037;-80
2022/04/03 08:35:51;;;;;;;8.85;6.35;;;;;;;;;;5042682;28;20033;-66
2022/04/03 08:38:18;;;;;;;9.30;6.90;;;;;;;;;;5040249;28;20026;-72
2022/04/03 08:40:44;;;;;;;8.57;7.25;;;;;;;;;;5047865;28;20479;-71
2022/04/03 08:43:11;;;;;;;11.50;6.72;;;;;;;;;;5029272;28;20032;-76
2022/04/03 08:45:39;;;;;;;13.20;7.05;;;;;;;;;;5033143;28;20052;-66
2022/04/03 08:48:06;;;;;;;11.07;7.15;;;;;;;;;;5045138;28;20155;-67
2022/04/03 08:50:34;;;;;;;8.80;6.80;;;;;;;;;;5042784;28;20033;-68
2022/04/03 08:53:02;;;;;;;9.65;7.07;;;;;;;;;;5053311;28;20029;-65
2022/04/03 08:55:28;;;;;;;10.57;6.97;;;;;;;;;;5045125;28;20083;-67
2022/04/03 08:57:54;;;;;;;17.90;7.78;;;;;;;;;;5045094;28;20190;-72
2022/04/03 09:00:21;;;;;;;10.00;7.40;;;;;;;;;;5031084;28;20037;-68
2022/04/03 09:02:47;;;;;;;8.93;7.30;;;;;;;;;;5033825;28;20047;-66
2022/04/03 09:05:16;;;;;;;9.85;7.10;;;;;;;;;;5031438;28;20037;-67
2022/04/03 09:07:42;;;;;;;7.80;6.40;;;;;;;;;;5041551;28;20013;-68
2022/04/03 09:10:09;;;;;;;8.05;6.72;;;;;;;;;;5029074;28;20048;-71
2022/04/03 09:12:49;;;;;;;8.48;6.80;;;;;;;;;;5037017;28;20079;-80
2022/04/03 09:15:19;;;;;;;7.97;6.72;;;;;;;;;;5034298;28;20482;-66
2022/04/03 09:17:46;;;;;;;8.55;6.60;;;;;;;;;;5047444;28;20124;-66
2022/04/03 09:20:14;;;;;;;9.15;6.13;;;;;;;;;;5041095;28;20029;-66
2022/04/03 09:22:43;;;;;;;8.43;6.22;;;;;;;;;;5026037;28;20056;-67
2022/04/03 09:25:11;;;;;;;7.38;6.30;;;;;;;;;;5041239;28;20051;-68
2022/04/03 09:27:47;;;;;;;10.38;6.10;;;;;;;;;;5048230;28;20128;-67
2022/04/03 09:30:14;;;;;;;13.73;8.27;;;;;;;;;;5040396;28;20037;-76
2022/04/03 09:32:49;;;;;;;13.35;8.93;;;;;;;;;;5046719;28;20033;-67
2022/04/03 09:35:18;;;;;;;8.85;6.97;;;;;;;;;;5045208;28;20026;-74
2022/04/03 09:38:03;;;;;;;8.73;7.07;;;;;;;;;;5031174;28;20056;-75
2022/04/03 09:40:34;;;;;;;8.73;6.88;;;;;;;;;;5042734;28;20049;-78
2022/04/03 09:43:17;;;;;;;9.35;6.72;;;;;;;;;;5047675;28;20040;-77
2022/04/03 09:45:45;;;;;;;10.98;6.93;;;;;;;;;;5043519;28;20033;-75
2022/04/03 09:48:41;;;;;;;9.50;6.43;;;;;;;;;;5040676;28;20057;-76
2022/04/03 09:51:10;;;;;;;11.25;7.88;;;;;;;;;;5041959;28;20044;-77
2022/04/03 09:53:47;;;;;;;10.75;6.90;;;;;;;;;;5042773;28;20521;-78
2022/04/03 09:56:27;;;;;;;8.60;6.18;;;;;;;;;;5038107;28;20045;-74
2022/04/03 09:59:03;;;;;;;9.30;6.28;;;;;;;;;;5039595;28;20041;-75
2022/04/03 10:01:31;;;;;;;8.48;6.05;;;;;;;;;;5043142;28;20077;-77
2022/04/03 10:03:59;;;;;;;7.43;5.82;;;;;;;;;;5035946;28;20033;-77
2022/04/03 10:06:25;;;;;;;8.73;6.05;;;;;;;;;;5034811;28;20050;-75
2022/04/03 10:08:52;;;;;;;7.85;6.53;;;;;;;;;;5035639;28;20048;-74
2022/04/03 10:11:19;;;;;;;8.07;6.88;;;;;;;;;;5034884;28;20029;-75
2022/04/03 10:13:45;;;;;;;9.52;6.85;;;;;;;;;;5032308;28;20623;-73
2022/04/03 10:16:14;;;;;;;10.73;8.23;;;;;;;;;;5036623;28;20033;-69
2022/04/03 10:18:41;;;;;;;13.13;10.10;;;;;;;;;;5033142;28;20142;-71
2022/04/03 10:21:11;;;;;;;13.48;7.25;;;;;;;;;;5038912;28;20092;-76
2022/04/03 10:23:38;;;;;;;8.43;6.65;;;;;;;;;;5039513;28;20025;-76
2022/04/03 10:26:07;;;;;;;8.80;7.53;;;;;;;;;;5039084;28;20124;-68
2022/04/03 10:28:35;;;;;;;9.70;7.40;;;;;;;;;;5037938;28;20029;-67
2022/04/03 10:31:07;;;;;;;8.88;6.40;;;;;;;;;;5031775;28;20026;-70
2022/04/03 10:33:42;;;;;;;7.75;5.68;;;;;;;;;;5037303;28;20071;-69
2022/04/03 10:36:10;;;;;;;8.73;5.97;;;;;;;;;;5037506;28;20095;-67
2022/04/03 10:38:40;;;;;;;7.13;5.90;;;;;;;;;;5034578;28;20022;-72
2022/04/03 10:41:06;;;;;;;9.07;5.90;;;;;;;;;;5044928;28;20439;-70
2022/04/03 10:43:43;;;;;;;5.53;4.60;;;;;;;;;;5053212;28;20032;-72
2022/04/03 10:46:09;;;;;;;7.20;5.00;;;;;;;;;;5037696;28;20033;-70
2022/04/03 10:48:36;;;;;;;6.13;5.30;;;;;;;;;;5033474;28;20022;-71
2022/04/03 10:51:02;;;;;;;10.93;6.20;;;;;;;;;;5020114;28;20080;-66
2022/04/03 10:53:32;;;;;;;14.35;9.13;;;;;;;;;;5016559;28;20116;-68
2022/04/03 10:56:00;;;;;;;27.70;13.32;;;;;;;;;;5032126;28;20025;-67
2022/04/03 10:58:38;;;;;;;19.58;10.85;;;;;;;;;;5038835;28;20029;-67
2022/04/03 11:01:04;;;;;;;16.92;11.30;;;;;;;;;;5034346;28;20041;-71
2022/04/03 11:03:32;;;;;;;9.98;7.63;;;;;;;;;;5018215;28;20037;-67
2022/04/03 11:05:58;;;;;;;9.15;8.02;;;;;;;;;;5027784;28;20021;-67
2022/04/03 11:08:43;;;;;;;14.63;11.73;;;;;;;;;;5035579;28;20037;-67
2022/04/03 11:11:09;;;;;;;10.70;9.27;;;;;;;;;;5027688;28;20061;-66
2022/04/03 11:13:37;;;;;;;9.57;8.40;;;;;;;;;;5017168;28;20018;-67
2022/04/03 11:16:13;;;;;;;9.73;7.85;;;;;;;;;;5023917;28;20045;-73
2022/04/03 11:18:47;;;;;;;12.35;8.70;;;;;;;;;;5036074;28;20052;-69
2022/04/03 11:21:19;;;;;;;9.45;8.45;;;;;;;;;;5037589;28;20038;-71
2022/04/03 11:23:47;;;;;;;10.30;9.20;;;;;;;;;;5037230;28;20048;-68
2022/04/03 11:26:13;;;;;;;10.50;9.40;;;;;;;;;;5038026;28;20082;-77
2022/04/03 11:28:40;;;;;;;10.88;9.15;;;;;;;;;;5037906;28;20389;-67
2022/04/03 11:31:06;;;;;;;13.23;10.35;;;;;;;;;;5039443;28;20101;-69
2022/04/03 11:33:33;;;;;;;13.65;10.90;;;;;;;;;;5035501;28;20124;-68
2022/04/03 11:36:19;;;;;;;11.32;10.13;;;;;;;;;;5037914;28;20085;-67
2022/04/03 11:38:51;;;;;;;13.07;11.30;;;;;;;;;;5035175;28;20025;-72
2022/04/03 11:41:25;;;;;;;14.80;12.15;;;;;;;;;;5035379;28;20032;-67
2022/04/03 11:43:51;;;;;;;;;;;;;;;;;;5038941;28;20100;-75
2022/04/03 11:46:17;;;;;;;13.90;11.50;;;;;;;;;;5035902;28;20433;-67
2022/04/03 11:48:45;;;;;;;11.43;9.98;;;;;;;;;;5034928;28;20128;-67
2022/04/03 11:51:16;;;;;;;11.30;10.10;;;;;;;;;;5038794;28;20025;-68
2022/04/03 11:53:44;;;;;;;11.32;9.90;;;;;;;;;;5037172;28;20109;-68
2022/04/03 11:56:11;;;;;;;10.60;9.50;;;;;;;;;;5036075;28;20026;-68
2022/04/03 11:58:42;;;;;;;12.18;10.57;;;;;;;;;;5035463;28;20026;-67
2022/04/03 12:01:10;;;;;;;11.60;10.18;;;;;;;;;;5037283;28;20382;-66
2022/04/03 12:03:37;;;;;;;21.95;13.23;;;;;;;;;;5033986;28;20064;-68
2022/04/03 12:06:13;;;;;;;15.45;11.80;;;;;;;;;;5036094;28;20091;-67
2022/04/03 12:08:40;;;;;;;22.75;13.90;;;;;;;;;;5036689;28;20017;-67
2022/04/03 12:11:16;;;;;;;17.63;11.70;;;;;;;;;;5031848;28;20414;-77
2022/04/03 12:13:42;;;;;;;40.10;21.75;;;;;;;;;;5035805;28;20100;-74
2022/04/03 12:16:09;;;;;;;14.60;10.40;;;;;;;;;;5037299;28;20021;-67
2022/04/03 12:18:56;;;;;;;13.05;10.25;;;;;;;;;;5037266;28;20494;-79
2022/04/03 12:21:36;;;;;;;13.45;10.15;;;;;;;;;;5037510;28;20033;-69
2022/04/03 12:24:03;;;;;;;11.52;10.32;;;;;;;;;;5037264;28;20428;-69
2022/04/03 12:26:29;;;;;;;11.38;9.45;;;;;;;;;;5034464;28;20022;-70
2022/04/03 12:28:56;;;;;;;9.52;8.48;;;;;;;;;;5035665;28;20109;-70
2022/04/03 12:31:34;;;;;;;12.23;9.73;;;;;;;;;;5035250;28;20470;-68
2022/04/03 12:34:08;;;;;;;10.85;9.68;;;;;;;;;;5033092;28;20217;-70
2022/04/03 12:36:38;;;;;;;16.30;12.35;;;;;;;;;;5035816;28;20378;-75
2022/04/03 12:39:05;;;;;;;12.50;10.55;;;;;;;;;;5035146;28;20033;-68
2022/04/03 12:41:31;;;;;;;15.27;11.70;;;;;;;;;;5034678;28;20501;-71
2022/04/03 12:43:59;;;;;;;20.45;15.05;;;;;;;;;;5034854;28;20502;-68
2022/04/03 12:46:35;;;;;;;17.50;13.38;;;;;;;;;;5036548;28;20032;-67
2022/04/03 12:49:01;;;;;;;11.52;9.18;;;;;;;;;;5036791;28;20391;-76
2022/04/03 12:51:37;;;;;;;10.07;8.98;;;;;;;;;;5036649;28;20025;-67
2022/04/03 12:54:03;;;;;;;12.30;10.88;;;;;;;;;;5033063;28;20075;-71
2022/04/03 12:58:24;;;;;;;13.23;11.80;;;;;;;;;;5034783;28;20022;-68
2022/04/03 12:59:21;;;;;;;11.32;9.60;;;;;;;;;;5034440;28;20391;-68
2022/04/03 13:01:52;;;;;;;9.45;7.82;;;;;;;;;;5036157;28;20025;-74
2022/04/03 13:04:31;;;;;;;8.13;6.97;;;;;;;;;;5034257;28;20043;-68
2022/04/03 13:06:57;;;;;;;15.15;10.65;;;;;;;;;;5024749;28;20378;-72
2022/04/03 13:09:23;;;;;;;8.70;7.43;;;;;;;;;;5035946;28;20021;-67
2022/04/03 13:11:50;;;;;;;9.90;7.55;;;;;;;;;;5035194;28;20117;-68
2022/04/03 13:14:17;;;;;;;8.80;7.90;;;;;;;;;;5035955;28;20394;-69
2022/04/03 13:16:44;;;;;;;10.00;7.60;;;;;;;;;;5038013;28;20053;-67
2022/04/03 13:19:10;;;;;;;10.23;7.75;;;;;;;;;;5033354;28;20072;-74
2022/04/03 13:21:37;;;;;;;21.52;16.67;;;;;;;;;;5038902;28;20029;-72
2022/04/03 13:24:04;;;;;;;10.35;8.10;;;;;;;;;;5035304;28;20068;-67
2022/04/03 13:26:30;;;;;;;10.55;8.88;;;;;;;;;;5034743;28;20030;-69
2022/04/03 13:28:57;;;;;;;12.70;9.88;;;;;;;;;;5032545;28;20023;-67
2022/04/03 13:31:23;;;;;;;12.50;10.77;;;;;;;;;;5034312;28;20544;-68
2022/04/03 13:33:49;;;;;;;11.77;10.57;;;;;;;;;;5035327;28;20030;-68
2022/04/03 13:36:16;;;;;;;14.55;11.25;;;;;;;;;;5035524;28;20069;-70
2022/04/03 13:38:42;;;;;;;13.48;11.75;;;;;;;;;;5035908;28;20032;-77
2022/04/03 13:41:08;;;;;;;11.77;10.00;;;;;;;;;;5036999;28;20037;-72
2022/04/03 13:43:37;;;;;;;12.13;10.75;;;;;;;;;;5038482;28;20025;-68
2022/04/03 13:46:03;;;;;;;12.75;10.60;;;;;;;;;;5037380;28;20068;-69
2022/04/03 13:48:40;;;;;;;12.23;10.77;;;;;;;;;;5037367;28;20537;-67
2022/04/03 13:51:19;;;;;;;16.15;11.63;;;;;;;;;;5036258;28;20039;-67
2022/04/03 13:53:48;;;;;;;14.65;12.23;;;;;;;;;;5038917;28;20025;-74
2022/04/03 13:56:18;;;;;;;18.13;12.95;;;;;;;;;;5041430;28;20047;-68
2022/04/03 13:58:45;;;;;;;16.63;13.35;;;;;;;;;;5037695;28;20060;-69
2022/04/03 14:01:11;;;;;;;13.90;12.38;;;;;;;;;;5032445;28;20033;-70
2022/04/03 14:03:37;;;;;;;15.13;13.38;;;;;;;;;;5038149;28;20017;-68
2022/04/03 14:06:04;;;;;;;14.63;11.85;;;;;;;;;;5037529;28;20565;-75
2022/04/03 14:08:30;;;;;;;17.17;12.98;;;;;;;;;;5037218;28;20104;-68
2022/04/03 14:10:59;;;;;;;15.18;11.38;;;;;;;;;;5038015;28;20025;-68
2022/04/03 14:13:28;;;;;;;14.98;11.68;;;;;;;;;;5037091;28;20025;-78
2022/04/03 14:15:55;;;;;;;15.35;12.25;;;;;;;;;;5036957;28;20064;-68
2022/04/03 14:18:23;;;;;;;16.20;11.80;;;;;;;;;;5036783;28;20030;-67
2022/04/03 14:20:49;;;;;;;15.70;13.38;;;;;;;;;;5035389;28;20123;-66
2022/04/03 14:23:15;;;;;;;25.08;15.23;;;;;;;;;;5036973;28;20028;-69
2022/04/03 14:25:41;;;;;;;22.88;14.43;;;;;;;;;;5036184;28;20026;-66
2022/04/03 14:28:08;;;;;;;14.15;11.23;;;;;;;;;;5037842;28;20022;-78